sensor_id;sensor_type;location;lat;lon;timestamp;temperature;humidity
40085;DHT22;25786;51.504;7.344;2023-05-10T00:01:51;14.20;91.70
40085;DHT22;25786;51.504;7.344;2023-05-10T00:04:17;14.20;92.10
40085;DHT22;25786;51.504;7.344;2023-05-10T00:06:42;14.30;91.90
40085;DHT22;25786;51.504;7.344;2023-05-10T00:09:08;14.20;91.80
40085;DHT22;25786;51.504;7.344;2023-05-10T00:11:33;14.10;92.00
40085;DHT22;25786;51.504;7.344;2023-05-10T00:13:59;14.10;92.20
40085;DHT22;25786;51.504;7.344;2023-05-10T00:16:24;14.10;92.30
40085;DHT22;25786;51.504;7.344;2023-05-10T00:18:50;14.20;92.10
40085;DHT22;25786;51.504;7.344;2023-05-10T00:21:15;14.20;92.20
40085;DHT22;25786;51.504;7.344;2023-05-10T00:23:40;14.20;92.20
40085;DHT22;25786;51.504;7.344;2023-05-10T00:26:06;14.20;91.80
40085;DHT22;25786;51.504;7.344;2023-05-10T00:28:31;14.30;92.00
40085;DHT22;25786;51.504;7.344;2023-05-10T00:30:57;14.30;91.30
40085;DHT22;25786;51.504;7.344;2023-05-10T00:33:22;14.20;91.50
40085;DHT22;25786;51.504;7.344;2023-05-10T00:35:47;14.10;91.70
40085;DHT22;25786;51.504;7.344;2023-05-10T00:38:13;14.30;91.40
40085;DHT22;25786;51.504;7.344;2023-05-10T00:40:39;14.30;91.30
40085;DHT22;25786;51.504;7.344;2023-05-10T00:43:04;14.20;91.20
40085;DHT22;25786;51.504;7.344;2023-05-10T00:45:33;14.20;91.60
40085;DHT22;25786;51.504;7.344;2023-05-10T00:48:01;14.20;91.40
40085;DHT22;25786;51.504;7.344;2023-05-10T00:50:27;14.10;91.50
40085;DHT22;25786;51.504;7.344;2023-05-10T00:52:53;14.10;91.30
40085;DHT22;25786;51.504;7.344;2023-05-10T00:55:18;14.10;91.50
40085;DHT22;25786;51.504;7.344;2023-05-10T00:57:43;14.10;91.80
40085;DHT22;25786;51.504;7.344;2023-05-10T01:00:09;14.10;91.60
40085;DHT22;25786;51.504;7.344;2023-05-10T01:02:36;14.10;91.70
40085;DHT22;25786;51.504;7.344;2023-05-10T01:05:02;14.10;91.80
40085;DHT22;25786;51.504;7.344;2023-05-10T01:07:28;14.10;91.90
40085;DHT22;25786;51.504;7.344;2023-05-10T01:09:54;14.30;91.80
40085;DHT22;25786;51.504;7.344;2023-05-10T01:12:20;14.10;91.60
40085;DHT22;25786;51.504;7.344;2023-05-10T01:14:46;14.20;91.40
40085;DHT22;25786;51.504;7.344;2023-05-10T01:17:11;14.20;91.60
40085;DHT22;25786;51.504;7.344;2023-05-10T01:19:37;14.20;91.80
40085;DHT22;25786;51.504;7.344;2023-05-10T01:24:40;14.30;91.70
40085;DHT22;25786;51.504;7.344;2023-05-10T01:32:27;14.20;91.80
40085;DHT22;25786;51.504;7.344;2023-05-10T01:34:56;14.10;91.70
40085;DHT22;25786;51.504;7.344;2023-05-10T01:37:40;14.10;91.80
40085;DHT22;25786;51.504;7.344;2023-05-10T01:40:14;14.00;92.00
40085;DHT22;25786;51.504;7.344;2023-05-10T01:42:48;14.10;92.20
40085;DHT22;25786;51.504;7.344;2023-05-10T01:45:24;14.10;91.60
40085;DHT22;25786;51.504;7.344;2023-05-10T01:48:04;14.10;91.50
40085;DHT22;25786;51.504;7.344;2023-05-10T01:50:30;14.10;90.90
40085;DHT22;25786;51.504;7.344;2023-05-10T01:52:58;14.10;90.40
40085;DHT22;25786;51.504;7.344;2023-05-10T01:55:26;14.00;90.60
40085;DHT22;25786;51.504;7.344;2023-05-10T01:57:55;14.00;91.10
40085;DHT22;25786;51.504;7.344;2023-05-10T02:00:22;14.00;90.50
40085;DHT22;25786;51.504;7.344;2023-05-10T02:02:48;14.00;90.60
40085;DHT22;25786;51.504;7.344;2023-05-10T02:05:14;14.00;91.10
40085;DHT22;25786;51.504;7.344;2023-05-10T02:07:40;14.00;91.50
40085;DHT22;25786;51.504;7.344;2023-05-10T02:10:06;14.00;90.60
40085;DHT22;25786;51.504;7.344;2023-05-10T02:12:36;14.00;90.60
40085;DHT22;25786;51.504;7.344;2023-05-10T02:15:02;14.10;90.00
40085;DHT22;25786;51.504;7.344;2023-05-10T02:17:28;14.10;90.20
40085;DHT22;25786;51.504;7.344;2023-05-10T02:19:53;14.00;90.20
40085;DHT22;25786;51.504;7.344;2023-05-10T02:22:21;13.90;90.30
40085;DHT22;25786;51.504;7.344;2023-05-10T02:24:47;13.80;90.70
40085;DHT22;25786;51.504;7.344;2023-05-10T02:27:13;13.90;91.30
40085;DHT22;25786;51.504;7.344;2023-05-10T02:29:39;14.00;91.10
40085;DHT22;25786;51.504;7.344;2023-05-10T02:32:04;14.00;90.40
40085;DHT22;25786;51.504;7.344;2023-05-10T02:34:31;13.90;90.70
40085;DHT22;25786;51.504;7.344;2023-05-10T02:36:56;13.90;90.20
40085;DHT22;25786;51.504;7.344;2023-05-10T02:39:23;14.00;89.90
40085;DHT22;25786;51.504;7.344;2023-05-10T02:41:49;14.00;89.30
40085;DHT22;25786;51.504;7.344;2023-05-10T02:44:17;13.80;89.90
40085;DHT22;25786;51.504;7.344;2023-05-10T02:46:43;13.80;90.30
40085;DHT22;25786;51.504;7.344;2023-05-10T02:49:09;13.80;89.50
40085;DHT22;25786;51.504;7.344;2023-05-10T02:51:35;13.80;89.90
40085;DHT22;25786;51.504;7.344;2023-05-10T02:54:12;13.80;89.40
40085;DHT22;25786;51.504;7.344;2023-05-10T02:56:40;13.70;89.50
40085;DHT22;25786;51.504;7.344;2023-05-10T02:59:07;13.70;90.00
40085;DHT22;25786;51.504;7.344;2023-05-10T03:01:33;13.80;90.40
40085;DHT22;25786;51.504;7.344;2023-05-10T03:03:59;13.70;90.50
40085;DHT22;25786;51.504;7.344;2023-05-10T03:06:24;13.80;90.50
40085;DHT22;25786;51.504;7.344;2023-05-10T03:08:50;13.80;90.80
40085;DHT22;25786;51.504;7.344;2023-05-10T03:16:16;13.80;90.70
40085;DHT22;25786;51.504;7.344;2023-05-10T03:19:45;13.70;90.70
40085;DHT22;25786;51.504;7.344;2023-05-10T03:21:39;13.70;90.70
40085;DHT22;25786;51.504;7.344;2023-05-10T03:24:07;13.70;90.90
40085;DHT22;25786;51.504;7.344;2023-05-10T03:26:33;13.60;91.10
40085;DHT22;25786;51.504;7.344;2023-05-10T03:28:59;13.60;91.10
40085;DHT22;25786;51.504;7.344;2023-05-10T03:31:25;13.60;91.30
40085;DHT22;25786;51.504;7.344;2023-05-10T03:33:51;13.70;91.50
40085;DHT22;25786;51.504;7.344;2023-05-10T03:36:17;13.60;91.30
40085;DHT22;25786;51.504;7.344;2023-05-10T03:38:42;13.60;91.50
40085;DHT22;25786;51.504;7.344;2023-05-10T03:41:08;13.60;91.60
40085;DHT22;25786;51.504;7.344;2023-05-10T03:43:33;13.60;91.40
40085;DHT22;25786;51.504;7.344;2023-05-10T03:46:01;13.60;91.40
40085;DHT22;25786;51.504;7.344;2023-05-10T03:48:26;13.60;91.70
40085;DHT22;25786;51.504;7.344;2023-05-10T03:50:52;13.60;91.60
40085;DHT22;25786;51.504;7.344;2023-05-10T03:53:17;13.60;91.30
40085;DHT22;25786;51.504;7.344;2023-05-10T03:55:42;13.60;91.40
40085;DHT22;25786;51.504;7.344;2023-05-10T03:58:10;13.60;91.50
40085;DHT22;25786;51.504;7.344;2023-05-10T04:00:35;13.60;91.70
40085;DHT22;25786;51.504;7.344;2023-05-10T04:03:01;13.70;91.80
40085;DHT22;25786;51.504;7.344;2023-05-10T04:05:26;13.70;91.70
40085;DHT22;25786;51.504;7.344;2023-05-10T04:07:52;13.70;91.50
40085;DHT22;25786;51.504;7.344;2023-05-10T04:10:17;13.80;91.60
40085;DHT22;25786;51.504;7.344;2023-05-10T04:12:43;13.80;91.40
40085;DHT22;25786;51.504;7.344;2023-05-10T04:15:08;13.80;91.40
40085;DHT22;25786;51.504;7.344;2023-05-10T04:17:34;13.80;91.20
40085;DHT22;25786;51.504;7.344;2023-05-10T04:19:59;13.70;91.20
40085;DHT22;25786;51.504;7.344;2023-05-10T04:22:25;13.70;91.40
40085;DHT22;25786;51.504;7.344;2023-05-10T04:24:50;13.70;91.50
40085;DHT22;25786;51.504;7.344;2023-05-10T04:27:16;13.70;91.40
40085;DHT22;25786;51.504;7.344;2023-05-10T04:29:41;13.70;91.40
40085;DHT22;25786;51.504;7.344;2023-05-10T04:32:06;13.80;91.30
40085;DHT22;25786;51.504;7.344;2023-05-10T04:34:32;13.80;91.10
40085;DHT22;25786;51.504;7.344;2023-05-10T04:36:59;13.80;91.30
40085;DHT22;25786;51.504;7.344;2023-05-10T04:39:24;13.80;91.10
40085;DHT22;25786;51.504;7.344;2023-05-10T04:41:50;13.80;91.20
40085;DHT22;25786;51.504;7.344;2023-05-10T04:44:15;13.80;91.20
40085;DHT22;25786;51.504;7.344;2023-05-10T04:46:41;13.80;91.20
40085;DHT22;25786;51.504;7.344;2023-05-10T04:49:06;13.70;91.20
40085;DHT22;25786;51.504;7.344;2023-05-10T04:51:32;13.80;91.40
40085;DHT22;25786;51.504;7.344;2023-05-10T04:53:57;13.80;91.40
40085;DHT22;25786;51.504;7.344;2023-05-10T04:56:23;13.90;91.10
40085;DHT22;25786;51.504;7.344;2023-05-10T04:58:48;13.80;91.10
40085;DHT22;25786;51.504;7.344;2023-05-10T05:01:14;13.70;91.30
40085;DHT22;25786;51.504;7.344;2023-05-10T05:03:46;13.70;91.30
40085;DHT22;25786;51.504;7.344;2023-05-10T05:06:11;13.70;91.60
40085;DHT22;25786;51.504;7.344;2023-05-10T05:08:37;13.70;91.60
40085;DHT22;25786;51.504;7.344;2023-05-10T05:11:02;13.70;91.60
40085;DHT22;25786;51.504;7.344;2023-05-10T05:13:28;13.70;91.60
40085;DHT22;25786;51.504;7.344;2023-05-10T05:15:53;13.60;91.70
40085;DHT22;25786;51.504;7.344;2023-05-10T05:18:19;13.70;92.00
40085;DHT22;25786;51.504;7.344;2023-05-10T05:20:45;13.70;92.10
40085;DHT22;25786;51.504;7.344;2023-05-10T05:23:10;13.80;92.00
40085;DHT22;25786;51.504;7.344;2023-05-10T05:25:36;13.80;91.90
40085;DHT22;25786;51.504;7.344;2023-05-10T05:28:01;13.80;92.00
40085;DHT22;25786;51.504;7.344;2023-05-10T05:30:27;13.90;91.50
40085;DHT22;25786;51.504;7.344;2023-05-10T05:32:53;13.90;91.60
40085;DHT22;25786;51.504;7.344;2023-05-10T05:35:21;14.00;91.20
40085;DHT22;25786;51.504;7.344;2023-05-10T05:37:46;13.90;91.20
40085;DHT22;25786;51.504;7.344;2023-05-10T05:40:12;13.90;91.50
40085;DHT22;25786;51.504;7.344;2023-05-10T05:42:38;14.00;91.50
40085;DHT22;25786;51.504;7.344;2023-05-10T05:45:04;14.00;91.50
40085;DHT22;25786;51.504;7.344;2023-05-10T05:47:29;14.00;91.60
40085;DHT22;25786;51.504;7.344;2023-05-10T05:49:55;14.10;91.70
40085;DHT22;25786;51.504;7.344;2023-05-10T05:52:20;14.10;91.40
40085;DHT22;25786;51.504;7.344;2023-05-10T05:54:46;14.10;91.10
40085;DHT22;25786;51.504;7.344;2023-05-10T05:57:11;14.10;91.40
40085;DHT22;25786;51.504;7.344;2023-05-10T05:59:37;14.10;91.00
40085;DHT22;25786;51.504;7.344;2023-05-10T06:02:07;14.10;91.00
40085;DHT22;25786;51.504;7.344;2023-05-10T06:04:33;14.10;91.30
40085;DHT22;25786;51.504;7.344;2023-05-10T06:06:58;14.10;91.00
40085;DHT22;25786;51.504;7.344;2023-05-10T06:09:24;14.10;91.30
40085;DHT22;25786;51.504;7.344;2023-05-10T06:11:49;14.10;90.90
40085;DHT22;25786;51.504;7.344;2023-05-10T06:14:15;14.10;90.90
40085;DHT22;25786;51.504;7.344;2023-05-10T06:16:40;14.10;90.80
40085;DHT22;25786;51.504;7.344;2023-05-10T06:19:06;14.10;91.30
40085;DHT22;25786;51.504;7.344;2023-05-10T06:21:31;14.30;90.80
40085;DHT22;25786;51.504;7.344;2023-05-10T06:23:57;14.30;91.10
40085;DHT22;25786;51.504;7.344;2023-05-10T06:26:22;14.20;90.80
40085;DHT22;25786;51.504;7.344;2023-05-10T06:28:47;14.20;90.40
40085;DHT22;25786;51.504;7.344;2023-05-10T06:31:13;14.10;90.80
40085;DHT22;25786;51.504;7.344;2023-05-10T06:33:38;14.10;90.40
40085;DHT22;25786;51.504;7.344;2023-05-10T06:36:04;14.10;90.60
40085;DHT22;25786;51.504;7.344;2023-05-10T06:38:29;14.10;91.00
40085;DHT22;25786;51.504;7.344;2023-05-10T06:40:55;14.20;90.80
40085;DHT22;25786;51.504;7.344;2023-05-10T06:43:20;14.20;90.50
40085;DHT22;25786;51.504;7.344;2023-05-10T06:45:47;14.30;90.90
40085;DHT22;25786;51.504;7.344;2023-05-10T06:48:12;14.40;90.80
40085;DHT22;25786;51.504;7.344;2023-05-10T06:50:38;14.40;90.80
40085;DHT22;25786;51.504;7.344;2023-05-10T06:53:03;14.50;90.80
40085;DHT22;25786;51.504;7.344;2023-05-10T06:55:29;14.60;90.90
40085;DHT22;25786;51.504;7.344;2023-05-10T06:57:57;14.60;90.40
40085;DHT22;25786;51.504;7.344;2023-05-10T07:00:22;14.80;90.30
40085;DHT22;25786;51.504;7.344;2023-05-10T07:02:50;14.90;90.40
40085;DHT22;25786;51.504;7.344;2023-05-10T07:05:17;15.00;90.00
40085;DHT22;25786;51.504;7.344;2023-05-10T07:07:42;15.00;89.60
40085;DHT22;25786;51.504;7.344;2023-05-10T07:10:08;15.00;89.10
40085;DHT22;25786;51.504;7.344;2023-05-10T07:12:34;15.00;89.10
40085;DHT22;25786;51.504;7.344;2023-05-10T07:14:59;15.00;89.30
40085;DHT22;25786;51.504;7.344;2023-05-10T07:17:25;15.00;89.20
40085;DHT22;25786;51.504;7.344;2023-05-10T07:19:53;15.10;89.20
40085;DHT22;25786;51.504;7.344;2023-05-10T07:22:19;15.20;88.80
40085;DHT22;25786;51.504;7.344;2023-05-10T07:24:44;15.30;88.50
40085;DHT22;25786;51.504;7.344;2023-05-10T07:27:10;15.30;87.70
40085;DHT22;25786;51.504;7.344;2023-05-10T07:29:36;15.50;87.50
40085;DHT22;25786;51.504;7.344;2023-05-10T07:32:02;15.50;87.30
40085;DHT22;25786;51.504;7.344;2023-05-10T07:34:28;15.60;87.10
40085;DHT22;25786;51.504;7.344;2023-05-10T07:36:56;15.50;86.80
40085;DHT22;25786;51.504;7.344;2023-05-10T07:39:25;15.60;87.00
40085;DHT22;25786;51.504;7.344;2023-05-10T07:41:51;15.50;86.90
40085;DHT22;25786;51.504;7.344;2023-05-10T07:44:16;15.50;87.10
40085;DHT22;25786;51.504;7.344;2023-05-10T07:46:44;15.50;86.60
40085;DHT22;25786;51.504;7.344;2023-05-10T07:49:09;15.50;86.70
40085;DHT22;25786;51.504;7.344;2023-05-10T07:51:35;15.60;86.70
40085;DHT22;25786;51.504;7.344;2023-05-10T07:54:00;15.60;86.60
40085;DHT22;25786;51.504;7.344;2023-05-10T07:56:33;15.50;87.20
40085;DHT22;25786;51.504;7.344;2023-05-10T07:59:02;15.50;86.90
40085;DHT22;25786;51.504;7.344;2023-05-10T08:01:34;15.50;87.10
40085;DHT22;25786;51.504;7.344;2023-05-10T08:04:00;15.50;87.50
40085;DHT22;25786;51.504;7.344;2023-05-10T08:06:25;15.30;87.80
40085;DHT22;25786;51.504;7.344;2023-05-10T08:08:55;15.30;87.50
40085;DHT22;25786;51.504;7.344;2023-05-10T08:11:21;15.50;87.80
40085;DHT22;25786;51.504;7.344;2023-05-10T08:13:47;15.60;87.40
40085;DHT22;25786;51.504;7.344;2023-05-10T08:16:20;15.80;87.20
40085;DHT22;25786;51.504;7.344;2023-05-10T08:18:46;15.90;86.60
40085;DHT22;25786;51.504;7.344;2023-05-10T08:21:12;15.90;86.50
40085;DHT22;25786;51.504;7.344;2023-05-10T08:23:37;15.90;86.00
40085;DHT22;25786;51.504;7.344;2023-05-10T08:26:03;15.90;86.70
40085;DHT22;25786;51.504;7.344;2023-05-10T08:28:28;15.90;86.70
40085;DHT22;25786;51.504;7.344;2023-05-10T08:30:54;15.90;86.70
40085;DHT22;25786;51.504;7.344;2023-05-10T08:33:19;15.90;85.80
40085;DHT22;25786;51.504;7.344;2023-05-10T08:35:45;15.80;85.70
40085;DHT22;25786;51.504;7.344;2023-05-10T08:38:10;15.70;85.50
40085;DHT22;25786;51.504;7.344;2023-05-10T08:40:42;15.70;86.30
40085;DHT22;25786;51.504;7.344;2023-05-10T08:43:11;15.70;86.10
40085;DHT22;25786;51.504;7.344;2023-05-10T08:45:38;15.50;86.00
40085;DHT22;25786;51.504;7.344;2023-05-10T08:48:05;15.50;85.50
40085;DHT22;25786;51.504;7.344;2023-05-10T08:50:37;15.30;86.00
40085;DHT22;25786;51.504;7.344;2023-05-10T08:53:19;15.30;86.00
40085;DHT22;25786;51.504;7.344;2023-05-10T08:55:51;15.20;86.30
40085;DHT22;25786;51.504;7.344;2023-05-10T08:58:20;15.30;87.00
40085;DHT22;25786;51.504;7.344;2023-05-10T09:01:04;15.40;87.20
40085;DHT22;25786;51.504;7.344;2023-05-10T09:03:50;15.50;86.60
40085;DHT22;25786;51.504;7.344;2023-05-10T09:06:30;15.70;86.10
40085;DHT22;25786;51.504;7.344;2023-05-10T09:09:04;15.70;85.30
40085;DHT22;25786;51.504;7.344;2023-05-10T09:11:33;15.80;85.60
40085;DHT22;25786;51.504;7.344;2023-05-10T09:14:12;16.00;85.40
40085;DHT22;25786;51.504;7.344;2023-05-10T09:16:40;16.10;84.30
40085;DHT22;25786;51.504;7.344;2023-05-10T09:19:06;16.20;84.10
40085;DHT22;25786;51.504;7.344;2023-05-10T09:21:39;16.30;83.90
40085;DHT22;25786;51.504;7.344;2023-05-10T09:24:05;16.20;83.70
40085;DHT22;25786;51.504;7.344;2023-05-10T09:26:31;16.20;84.10
40085;DHT22;25786;51.504;7.344;2023-05-10T09:28:57;16.30;83.80
40085;DHT22;25786;51.504;7.344;2023-05-10T09:31:23;16.30;83.50
40085;DHT22;25786;51.504;7.344;2023-05-10T09:33:50;16.30;83.10
40085;DHT22;25786;51.504;7.344;2023-05-10T09:36:16;16.50;82.10
40085;DHT22;25786;51.504;7.344;2023-05-10T09:38:45;16.50;82.00
40085;DHT22;25786;51.504;7.344;2023-05-10T09:41:16;16.50;82.30
40085;DHT22;25786;51.504;7.344;2023-05-10T09:43:42;16.60;82.80
40085;DHT22;25786;51.504;7.344;2023-05-10T09:46:10;16.60;82.00
40085;DHT22;25786;51.504;7.344;2023-05-10T09:48:41;16.70;81.60
40085;DHT22;25786;51.504;7.344;2023-05-10T09:51:07;16.70;81.20
40085;DHT22;25786;51.504;7.344;2023-05-10T09:56:33;16.80;80.40
40085;DHT22;25786;51.504;7.344;2023-05-10T09:59:03;16.80;79.70
40085;DHT22;25786;51.504;7.344;2023-05-10T10:01:29;16.90;80.30
40085;DHT22;25786;51.504;7.344;2023-05-10T10:03:54;16.90;79.70
40085;DHT22;25786;51.504;7.344;2023-05-10T10:06:26;17.00;80.10
40085;DHT22;25786;51.504;7.344;2023-05-10T10:08:51;17.00;80.80
40085;DHT22;25786;51.504;7.344;2023-05-10T10:11:18;17.10;78.70
40085;DHT22;25786;51.504;7.344;2023-05-10T10:13:43;17.10;79.00
40085;DHT22;25786;51.504;7.344;2023-05-10T10:16:09;17.20;78.70
40085;DHT22;25786;51.504;7.344;2023-05-10T10:18:37;17.30;78.70
40085;DHT22;25786;51.504;7.344;2023-05-10T10:21:07;17.40;79.00
40085;DHT22;25786;51.504;7.344;2023-05-10T10:23:34;17.40;79.10
40085;DHT22;25786;51.504;7.344;2023-05-10T10:26:00;17.40;78.80
40085;DHT22;25786;51.504;7.344;2023-05-10T10:31:23;17.60;76.50
40085;DHT22;25786;51.504;7.344;2023-05-10T10:33:55;17.60;75.20
40085;DHT22;25786;51.504;7.344;2023-05-10T10:36:22;17.70;76.40
40085;DHT22;25786;51.504;7.344;2023-05-10T10:41:27;17.80;76.10
40085;DHT22;25786;51.504;7.344;2023-05-10T10:46:58;17.60;77.10
40085;DHT22;25786;51.504;7.344;2023-05-10T10:49:22;17.10;76.40
40085;DHT22;25786;51.504;7.344;2023-05-10T10:54:36;16.60;78.20
40085;DHT22;25786;51.504;7.344;2023-05-10T10:57:11;16.50;80.00
40085;DHT22;25786;51.504;7.344;2023-05-10T10:59:44;16.40;79.10
40085;DHT22;25786;51.504;7.344;2023-05-10T11:02:31;16.50;78.10
40085;DHT22;25786;51.504;7.344;2023-05-10T11:04:56;16.60;77.70
40085;DHT22;25786;51.504;7.344;2023-05-10T11:07:21;16.80;78.00
40085;DHT22;25786;51.504;7.344;2023-05-10T11:09:47;17.10;77.50
40085;DHT22;25786;51.504;7.344;2023-05-10T11:12:12;17.20;76.20
40085;DHT22;25786;51.504;7.344;2023-05-10T11:14:38;17.30;73.90
40085;DHT22;25786;51.504;7.344;2023-05-10T11:17:21;17.50;73.40
40085;DHT22;25786;51.504;7.344;2023-05-10T11:20:06;17.60;74.50
40085;DHT22;25786;51.504;7.344;2023-05-10T11:22:31;17.70;74.90
40085;DHT22;25786;51.504;7.344;2023-05-10T11:25:13;17.50;74.40
40085;DHT22;25786;51.504;7.344;2023-05-10T11:27:39;17.20;74.90
40085;DHT22;25786;51.504;7.344;2023-05-10T11:30:06;17.10;75.70
40085;DHT22;25786;51.504;7.344;2023-05-10T11:32:31;17.20;75.40
40085;DHT22;25786;51.504;7.344;2023-05-10T11:34:57;17.20;75.80
40085;DHT22;25786;51.504;7.344;2023-05-10T11:37:22;17.20;75.10
40085;DHT22;25786;51.504;7.344;2023-05-10T11:39:48;17.20;75.90
40085;DHT22;25786;51.504;7.344;2023-05-10T11:42:13;17.30;76.00
40085;DHT22;25786;51.504;7.344;2023-05-10T11:44:39;17.30;76.20
40085;DHT22;25786;51.504;7.344;2023-05-10T11:47:05;17.10;75.00
40085;DHT22;25786;51.504;7.344;2023-05-10T11:49:31;17.00;75.40
40085;DHT22;25786;51.504;7.344;2023-05-10T11:52:04;17.00;75.50
40085;DHT22;25786;51.504;7.344;2023-05-10T11:54:29;17.10;76.50
40085;DHT22;25786;51.504;7.344;2023-05-10T11:56:56;17.30;75.10
40085;DHT22;25786;51.504;7.344;2023-05-10T11:59:24;17.50;74.50
40085;DHT22;25786;51.504;7.344;2023-05-10T12:01:50;17.70;74.00
40085;DHT22;25786;51.504;7.344;2023-05-10T12:04:16;17.80;73.70
40085;DHT22;25786;51.504;7.344;2023-05-10T12:06:41;17.90;73.90
40085;DHT22;25786;51.504;7.344;2023-05-10T12:09:07;17.80;72.80
40085;DHT22;25786;51.504;7.344;2023-05-10T12:11:37;18.00;73.10
40085;DHT22;25786;51.504;7.344;2023-05-10T12:14:04;17.80;71.90
40085;DHT22;25786;51.504;7.344;2023-05-10T12:16:30;17.80;71.80
40085;DHT22;25786;51.504;7.344;2023-05-10T12:18:56;17.80;72.80
40085;DHT22;25786;51.504;7.344;2023-05-10T12:21:22;17.60;72.10
40085;DHT22;25786;51.504;7.344;2023-05-10T12:23:50;17.70;73.30
40085;DHT22;25786;51.504;7.344;2023-05-10T12:26:15;17.80;72.50
40085;DHT22;25786;51.504;7.344;2023-05-10T12:28:41;17.80;71.70
40085;DHT22;25786;51.504;7.344;2023-05-10T12:31:07;17.90;72.50
40085;DHT22;25786;51.504;7.344;2023-05-10T12:33:39;18.00;71.90
40085;DHT22;25786;51.504;7.344;2023-05-10T12:36:06;18.00;72.40
40085;DHT22;25786;51.504;7.344;2023-05-10T12:38:32;18.00;72.10
40085;DHT22;25786;51.504;7.344;2023-05-10T12:41:02;18.00;72.60
40085;DHT22;25786;51.504;7.344;2023-05-10T12:43:28;18.00;72.20
40085;DHT22;25786;51.504;7.344;2023-05-10T12:45:53;17.90;71.90
40085;DHT22;25786;51.504;7.344;2023-05-10T12:48:19;17.90;70.60
40085;DHT22;25786;51.504;7.344;2023-05-10T12:50:45;18.00;71.40
40085;DHT22;25786;51.504;7.344;2023-05-10T12:53:10;18.00;71.10
40085;DHT22;25786;51.504;7.344;2023-05-10T12:55:36;18.00;71.50
40085;DHT22;25786;51.504;7.344;2023-05-10T12:58:01;18.20;71.70
40085;DHT22;25786;51.504;7.344;2023-05-10T13:00:27;18.30;71.50
40085;DHT22;25786;51.504;7.344;2023-05-10T13:02:52;18.30;69.90
40085;DHT22;25786;51.504;7.344;2023-05-10T13:05:18;18.30;70.70
40085;DHT22;25786;51.504;7.344;2023-05-10T13:07:43;18.20;70.80
40085;DHT22;25786;51.504;7.344;2023-05-10T13:10:09;18.30;71.90
40085;DHT22;25786;51.504;7.344;2023-05-10T13:12:35;18.20;69.90
40085;DHT22;25786;51.504;7.344;2023-05-10T13:15:01;18.20;70.30
40085;DHT22;25786;51.504;7.344;2023-05-10T13:17:26;18.20;71.60
40085;DHT22;25786;51.504;7.344;2023-05-10T13:19:52;18.20;70.10
40085;DHT22;25786;51.504;7.344;2023-05-10T13:22:17;18.20;70.30
40085;DHT22;25786;51.504;7.344;2023-05-10T13:24:43;18.30;70.10
40085;DHT22;25786;51.504;7.344;2023-05-10T13:27:08;18.30;70.20
40085;DHT22;25786;51.504;7.344;2023-05-10T13:29:34;18.30;68.40
40085;DHT22;25786;51.504;7.344;2023-05-10T13:31:59;18.30;69.60
40085;DHT22;25786;51.504;7.344;2023-05-10T13:34:25;18.20;69.70
40085;DHT22;25786;51.504;7.344;2023-05-10T13:36:50;18.10;70.00
40085;DHT22;25786;51.504;7.344;2023-05-10T13:39:16;18.10;70.30
40085;DHT22;25786;51.504;7.344;2023-05-10T13:41:41;18.30;71.20
40085;DHT22;25786;51.504;7.344;2023-05-10T13:44:07;18.60;70.40
40085;DHT22;25786;51.504;7.344;2023-05-10T13:46:33;18.70;69.80
40085;DHT22;25786;51.504;7.344;2023-05-10T13:48:58;18.90;68.00
40085;DHT22;25786;51.504;7.344;2023-05-10T13:51:24;18.80;68.50
40085;DHT22;25786;51.504;7.344;2023-05-10T13:53:49;18.80;67.50
40085;DHT22;25786;51.504;7.344;2023-05-10T14:02:10;19.10;66.90
40085;DHT22;25786;51.504;7.344;2023-05-10T14:04:50;19.10;65.60
40085;DHT22;25786;51.504;7.344;2023-05-10T14:07:21;19.00;66.10
40085;DHT22;25786;51.504;7.344;2023-05-10T14:13:30;19.20;66.00
40085;DHT22;25786;51.504;7.344;2023-05-10T14:16:10;19.30;64.10
40085;DHT22;25786;51.504;7.344;2023-05-10T14:18:46;19.30;63.60
40085;DHT22;25786;51.504;7.344;2023-05-10T14:21:27;19.20;63.00
40085;DHT22;25786;51.504;7.344;2023-05-10T14:29:34;19.40;63.20
40085;DHT22;25786;51.504;7.344;2023-05-10T14:32:00;19.50;62.10
40085;DHT22;25786;51.504;7.344;2023-05-10T14:34:41;19.50;61.40
40085;DHT22;25786;51.504;7.344;2023-05-10T14:40:14;19.40;62.60
40085;DHT22;25786;51.504;7.344;2023-05-10T14:42:43;19.40;62.20
40085;DHT22;25786;51.504;7.344;2023-05-10T14:48:07;19.40;64.20
40085;DHT22;25786;51.504;7.344;2023-05-10T14:50:36;19.40;64.50
40085;DHT22;25786;51.504;7.344;2023-05-10T14:53:01;19.50;62.30
40085;DHT22;25786;51.504;7.344;2023-05-10T14:55:27;19.60;62.00
40085;DHT22;25786;51.504;7.344;2023-05-10T14:57:52;19.30;62.00
40085;DHT22;25786;51.504;7.344;2023-05-10T15:00:18;19.20;62.00
40085;DHT22;25786;51.504;7.344;2023-05-10T15:02:44;19.30;63.20
40085;DHT22;25786;51.504;7.344;2023-05-10T15:05:10;19.50;60.40
40085;DHT22;25786;51.504;7.344;2023-05-10T15:07:35;19.40;62.70
40085;DHT22;25786;51.504;7.344;2023-05-10T15:10:00;19.20;63.80
40085;DHT22;25786;51.504;7.344;2023-05-10T15:12:26;19.20;64.30
40085;DHT22;25786;51.504;7.344;2023-05-10T15:14:52;19.30;62.00
40085;DHT22;25786;51.504;7.344;2023-05-10T15:17:17;19.10;63.50
40085;DHT22;25786;51.504;7.344;2023-05-10T15:19:43;19.00;64.10
40085;DHT22;25786;51.504;7.344;2023-05-10T15:22:08;19.00;63.10
40085;DHT22;25786;51.504;7.344;2023-05-10T15:24:34;19.10;64.00
40085;DHT22;25786;51.504;7.344;2023-05-10T15:26:59;19.10;63.20
40085;DHT22;25786;51.504;7.344;2023-05-10T15:29:25;19.00;63.50
40085;DHT22;25786;51.504;7.344;2023-05-10T15:31:51;18.80;64.50
40085;DHT22;25786;51.504;7.344;2023-05-10T15:34:17;18.70;64.70
40085;DHT22;25786;51.504;7.344;2023-05-10T15:36:43;18.90;61.30
40085;DHT22;25786;51.504;7.344;2023-05-10T15:39:08;19.00;62.50
40085;DHT22;25786;51.504;7.344;2023-05-10T15:41:37;18.90;63.30
40085;DHT22;25786;51.504;7.344;2023-05-10T15:44:02;18.80;63.40
40085;DHT22;25786;51.504;7.344;2023-05-10T15:46:28;18.70;63.90
40085;DHT22;25786;51.504;7.344;2023-05-10T15:48:54;18.60;64.10
40085;DHT22;25786;51.504;7.344;2023-05-10T15:51:19;18.80;65.60
40085;DHT22;25786;51.504;7.344;2023-05-10T15:53:45;18.90;64.40
40085;DHT22;25786;51.504;7.344;2023-05-10T15:56:11;19.00;62.90
40085;DHT22;25786;51.504;7.344;2023-05-10T15:58:39;19.00;61.60
40085;DHT22;25786;51.504;7.344;2023-05-10T16:01:05;19.00;62.90
40085;DHT22;25786;51.504;7.344;2023-05-10T16:03:31;19.10;62.40
40085;DHT22;25786;51.504;7.344;2023-05-10T16:05:57;19.10;61.60
40085;DHT22;25786;51.504;7.344;2023-05-10T16:08:23;19.30;62.30
40085;DHT22;25786;51.504;7.344;2023-05-10T16:10:49;19.50;59.80
40085;DHT22;25786;51.504;7.344;2023-05-10T16:13:15;19.30;60.20
40085;DHT22;25786;51.504;7.344;2023-05-10T16:15:41;19.40;59.50
40085;DHT22;25786;51.504;7.344;2023-05-10T16:18:07;19.20;60.70